sensor_id;sensor_type;location;lat;lon;timestamp;pressure;altitude;pressure_sealevel;temperature;humidity
52032;BME280;38044;45.148;39.604;2023-11-21T00:01:58;100263.34;;;4.00;87.19
52032;BME280;38044;45.148;39.604;2023-11-21T00:04:24;100283.88;;;4.04;87.88
52032;BME280;38044;45.148;39.604;2023-11-21T00:06:50;100287.28;;;4.00;88.73
52032;BME280;38044;45.148;39.604;2023-11-21T00:09:16;100293.66;;;3.99;89.27
52032;BME280;38044;45.148;39.604;2023-11-21T00:11:43;100283.72;;;3.89;89.88
52032;BME280;38044;45.148;39.604;2023-11-21T00:14:13;100286.16;;;3.91;89.85
52032;BME280;38044;45.148;39.604;2023-11-21T00:16:52;100275.56;;;3.96;90.13
52032;BME280;38044;45.148;39.604;2023-11-21T00:19:19;100285.00;;;3.81;89.99
52032;BME280;38044;45.148;39.604;2023-11-21T00:21:45;100275.34;;;3.70;90.43
52032;BME280;38044;45.148;39.604;2023-11-21T00:24:12;100271.59;;;3.71;90.29
52032;BME280;38044;45.148;39.604;2023-11-21T00:26:40;100276.91;;;3.71;90.46
52032;BME280;38044;45.148;39.604;2023-11-21T00:29:06;100287.59;;;3.76;90.58
52032;BME280;38044;45.148;39.604;2023-11-21T00:31:34;100299.09;;;3.82;90.71
52032;BME280;38044;45.148;39.604;2023-11-21T00:34:04;100292.69;;;3.78;90.24
52032;BME280;38044;45.148;39.604;2023-11-21T00:36:33;100305.50;;;3.86;90.20
52032;BME280;38044;45.148;39.604;2023-11-21T00:38:59;100303.13;;;3.84;89.63
52032;BME280;38044;45.148;39.604;2023-11-21T00:41:25;100311.66;;;3.87;89.67
52032;BME280;38044;45.148;39.604;2023-11-21T00:43:53;100322.56;;;3.90;89.63
52032;BME280;38044;45.148;39.604;2023-11-21T00:46:20;100303.50;;;3.71;89.30
52032;BME280;38044;45.148;39.604;2023-11-21T00:48:46;100326.47;;;3.82;89.54
52032;BME280;38044;45.148;39.604;2023-11-21T00:51:12;100336.44;;;3.92;89.40
52032;BME280;38044;45.148;39.604;2023-11-21T00:53:38;100334.00;;;3.91;89.29
52032;BME280;38044;45.148;39.604;2023-11-21T00:56:05;100322.22;;;3.81;89.31
52032;BME280;38044;45.148;39.604;2023-11-21T00:58:32;100342.56;;;3.93;89.52
52032;BME280;38044;45.148;39.604;2023-11-21T01:00:58;100336.09;;;3.89;89.46
52032;BME280;38044;45.148;39.604;2023-11-21T01:03:24;100344.94;;;3.94;89.18
52032;BME280;38044;45.148;39.604;2023-11-21T01:05:49;100357.72;;;3.97;89.35
52032;BME280;38044;45.148;39.604;2023-11-21T01:08:15;100364.34;;;3.90;89.69
52032;BME280;38044;45.148;39.604;2023-11-21T01:10:41;100370.75;;;3.94;90.21
52032;BME280;38044;45.148;39.604;2023-11-21T01:13:07;100361.25;;;3.76;90.33
52032;BME280;38044;45.148;39.604;2023-11-21T01:15:33;100359.41;;;3.76;90.74
52032;BME280;38044;45.148;39.604;2023-11-21T01:17:59;100368.53;;;3.86;90.45
52032;BME280;38044;45.148;39.604;2023-11-21T01:20:25;100371.69;;;3.82;90.27
52032;BME280;38044;45.148;39.604;2023-11-21T01:22:51;100369.09;;;3.88;90.07
52032;BME280;38044;45.148;39.604;2023-11-21T01:25:19;100369.03;;;3.82;89.85
52032;BME280;38044;45.148;39.604;2023-11-21T01:27:46;100369.03;;;3.82;89.54
52032;BME280;38044;45.148;39.604;2023-11-21T01:30:12;100372.25;;;3.84;89.33
52032;BME280;38044;45.148;39.604;2023-11-21T01:32:39;100352.47;;;3.75;89.29
52032;BME280;38044;45.148;39.604;2023-11-21T01:35:05;100366.94;;;3.84;88.66
52032;BME280;38044;45.148;39.604;2023-11-21T01:37:36;100375.97;;;3.83;88.58
52032;BME280;38044;45.148;39.604;2023-11-21T01:40:03;100373.78;;;3.80;88.36
52032;BME280;38044;45.148;39.604;2023-11-21T01:42:33;100379.38;;;3.79;88.43
52032;BME280;38044;45.148;39.604;2023-11-21T01:45:00;100376.41;;;3.75;88.24
52032;BME280;38044;45.148;39.604;2023-11-21T01:47:32;100375.84;;;3.73;88.65
52032;BME280;38044;45.148;39.604;2023-11-21T01:49:58;100366.59;;;3.54;88.90
52032;BME280;38044;45.148;39.604;2023-11-21T01:52:25;100380.75;;;3.59;88.53
52032;BME280;38044;45.148;39.604;2023-11-21T01:54:52;100388.06;;;3.47;88.90
52032;BME280;38044;45.148;39.604;2023-11-21T01:57:19;100379.06;;;3.31;88.77
52032;BME280;38044;45.148;39.604;2023-11-21T01:59:48;100371.72;;;3.16;89.39
52032;BME280;38044;45.148;39.604;2023-11-21T02:02:15;100383.03;;;3.07;89.47
52032;BME280;38044;45.148;39.604;2023-11-21T02:04:42;100384.81;;;3.01;89.76
52032;BME280;38044;45.148;39.604;2023-11-21T02:07:08;100364.84;;;2.99;89.96
52032;BME280;38044;45.148;39.604;2023-11-21T02:09:33;100394.16;;;3.04;90.26
52032;BME280;38044;45.148;39.604;2023-11-21T02:12:00;100394.44;;;3.07;90.20
52032;BME280;38044;45.148;39.604;2023-11-21T02:14:27;100395.75;;;3.05;90.42
52032;BME280;38044;45.148;39.604;2023-11-21T02:16:54;100403.78;;;3.10;90.53
52032;BME280;38044;45.148;39.604;2023-11-21T02:19:21;100408.03;;;3.11;90.65
52032;BME280;38044;45.148;39.604;2023-11-21T02:21:56;100411.25;;;3.13;90.90
52032;BME280;38044;45.148;39.604;2023-11-21T02:24:28;100415.59;;;3.19;90.87
52032;BME280;38044;45.148;39.604;2023-11-21T02:26:54;100403.38;;;3.18;90.87
52032;BME280;38044;45.148;39.604;2023-11-21T02:29:21;100411.34;;;3.18;90.39
52032;BME280;38044;45.148;39.604;2023-11-21T02:31:52;100424.81;;;3.33;90.03
52032;BME280;38044;45.148;39.604;2023-11-21T02:34:21;100413.44;;;3.16;89.80
52032;BME280;38044;45.148;39.604;2023-11-21T02:36:47;100427.28;;;3.18;90.27
52032;BME280;38044;45.148;39.604;2023-11-21T02:39:17;100414.25;;;3.00;91.00
52032;BME280;38044;45.148;39.604;2023-11-21T02:41:44;100445.78;;;3.13;91.54
52032;BME280;38044;45.148;39.604;2023-11-21T02:44:10;100428.59;;;2.99;91.81
52032;BME280;38044;45.148;39.604;2023-11-21T02:46:36;100451.59;;;3.10;91.70
52032;BME280;38044;45.148;39.604;2023-11-21T02:49:06;100450.47;;;3.06;92.09
52032;BME280;38044;45.148;39.604;2023-11-21T02:51:36;100452.88;;;3.07;92.13
52032;BME280;38044;45.148;39.604;2023-11-21T02:54:05;100451.50;;;3.05;92.32
52032;BME280;38044;45.148;39.604;2023-11-21T02:56:36;100455.75;;;3.06;92.58
52032;BME280;38044;45.148;39.604;2023-11-21T02:59:03;100451.91;;;2.97;92.57
52032;BME280;38044;45.148;39.604;2023-11-21T03:01:28;100456.75;;;3.00;92.65
52032;BME280;38044;45.148;39.604;2023-11-21T03:03:54;100464.72;;;3.00;92.70
52032;BME280;38044;45.148;39.604;2023-11-21T03:06:21;100470.34;;;3.03;93.18
52032;BME280;38044;45.148;39.604;2023-11-21T03:08:47;100476.69;;;3.02;93.14
52032;BME280;38044;45.148;39.604;2023-11-21T03:11:13;100472.75;;;3.05;92.86
52032;BME280;38044;45.148;39.604;2023-11-21T03:13:43;100449.25;;;2.97;92.44
52032;BME280;38044;45.148;39.604;2023-11-21T03:16:12;100481.53;;;3.05;92.06
52032;BME280;38044;45.148;39.604;2023-11-21T03:18:38;100458.69;;;2.87;91.88
52032;BME280;38044;45.148;39.604;2023-11-21T03:21:05;100479.13;;;3.04;91.87
52032;BME280;38044;45.148;39.604;2023-11-21T03:23:31;100476.47;;;3.04;91.69
52032;BME280;38044;45.148;39.604;2023-11-21T03:25:57;100473.03;;;2.86;91.18
52032;BME280;38044;45.148;39.604;2023-11-21T03:28:25;100489.75;;;3.04;91.22
52032;BME280;38044;45.148;39.604;2023-11-21T03:30:53;100493.91;;;3.00;91.08
52032;BME280;38044;45.148;39.604;2023-11-21T03:33:20;100501.56;;;3.13;91.03
52032;BME280;38044;45.148;39.604;2023-11-21T03:35:46;100501.50;;;3.08;89.84
52032;BME280;38044;45.148;39.604;2023-11-21T03:38:12;100515.91;;;3.12;89.09
52032;BME280;38044;45.148;39.604;2023-11-21T03:40:38;100483.47;;;2.93;89.13
52032;BME280;38044;45.148;39.604;2023-11-21T03:43:05;100481.38;;;2.95;89.06
52032;BME280;38044;45.148;39.604;2023-11-21T03:45:32;100501.50;;;2.91;89.54
52032;BME280;38044;45.148;39.604;2023-11-21T03:47:58;100509.84;;;3.00;89.00
52032;BME280;38044;45.148;39.604;2023-11-21T03:50:23;100519.28;;;3.07;89.01
52032;BME280;38044;45.148;39.604;2023-11-21T03:52:49;100528.63;;;3.10;88.98
52032;BME280;38044;45.148;39.604;2023-11-21T03:55:15;100535.53;;;3.11;88.79
52032;BME280;38044;45.148;39.604;2023-11-21T03:57:42;100546.06;;;3.06;88.60
52032;BME280;38044;45.148;39.604;2023-11-21T04:00:08;100543.34;;;3.01;88.72
52032;BME280;38044;45.148;39.604;2023-11-21T04:02:36;100551.88;;;3.03;88.94
52032;BME280;38044;45.148;39.604;2023-11-21T04:05:02;100552.91;;;3.02;88.26
52032;BME280;38044;45.148;39.604;2023-11-21T04:07:28;100559.78;;;2.98;88.89
52032;BME280;38044;45.148;39.604;2023-11-21T04:09:54;100560.63;;;3.03;88.86
52032;BME280;38044;45.148;39.604;2023-11-21T04:12:20;100560.88;;;3.02;89.12
52032;BME280;38044;45.148;39.604;2023-11-21T04:14:46;100565.41;;;3.01;88.81
52032;BME280;38044;45.148;39.604;2023-11-21T04:17:12;100571.50;;;3.02;88.14
52032;BME280;38044;45.148;39.604;2023-11-21T04:19:38;100574.38;;;3.00;88.28
52032;BME280;38044;45.148;39.604;2023-11-21T04:22:04;100561.19;;;2.88;88.19
52032;BME280;38044;45.148;39.604;2023-11-21T04:24:39;100590.19;;;3.07;88.85
52032;BME280;38044;45.148;39.604;2023-11-21T04:27:08;100580.53;;;3.01;88.46
52032;BME280;38044;45.148;39.604;2023-11-21T04:29:34;100591.22;;;3.06;88.22
52032;BME280;38044;45.148;39.604;2023-11-21T04:32:01;100582.28;;;2.95;88.53
52032;BME280;38044;45.148;39.604;2023-11-21T04:34:28;100605.31;;;3.06;88.62
52032;BME280;38044;45.148;39.604;2023-11-21T04:36:56;100610.38;;;3.08;88.23
52032;BME280;38044;45.148;39.604;2023-11-21T04:39:23;100603.59;;;3.00;88.50
52032;BME280;38044;45.148;39.604;2023-11-21T04:41:50;100609.81;;;3.06;88.94
52032;BME280;38044;45.148;39.604;2023-11-21T04:44:15;100612.47;;;3.06;89.03
52032;BME280;38044;45.148;39.604;2023-11-21T04:46:42;100616.19;;;3.05;89.00
52032;BME280;38044;45.148;39.604;2023-11-21T04:49:08;100611.91;;;3.04;89.09
52032;BME280;38044;45.148;39.604;2023-11-21T04:51:36;100628.66;;;3.04;89.32
52032;BME280;38044;45.148;39.604;2023-11-21T04:54:02;100617.38;;;2.97;89.88
52032;BME280;38044;45.148;39.604;2023-11-21T04:56:28;100638.47;;;3.04;90.43
52032;BME280;38044;45.148;39.604;2023-11-21T04:58:54;100637.44;;;3.05;91.05
52032;BME280;38044;45.148;39.604;2023-11-21T05:01:20;100638.53;;;3.09;91.59
52032;BME280;38044;45.148;39.604;2023-11-21T05:03:46;100628.88;;;3.03;91.77
52032;BME280;38044;45.148;39.604;2023-11-21T05:06:15;100644.63;;;3.21;91.94
52032;BME280;38044;45.148;39.604;2023-11-21T05:08:44;100644.53;;;3.16;91.07
52032;BME280;38044;45.148;39.604;2023-11-21T05:11:10;100651.69;;;3.15;90.85
52032;BME280;38044;45.148;39.604;2023-11-21T05:13:36;100646.50;;;3.09;90.37
52032;BME280;38044;45.148;39.604;2023-11-21T05:16:03;100648.84;;;3.05;90.85
52032;BME280;38044;45.148;39.604;2023-11-21T05:18:32;100637.47;;;2.93;91.18
52032;BME280;38044;45.148;39.604;2023-11-21T05:20:59;100644.16;;;2.96;90.91
52032;BME280;38044;45.148;39.604;2023-11-21T05:23:26;100666.16;;;3.08;91.41
52032;BME280;38044;45.148;39.604;2023-11-21T05:25:52;100647.94;;;3.00;91.29
52032;BME280;38044;45.148;39.604;2023-11-21T05:28:17;100667.22;;;3.07;90.97
52032;BME280;38044;45.148;39.604;2023-11-21T05:30:43;100668.13;;;3.12;91.08
52032;BME280;38044;45.148;39.604;2023-11-21T05:33:09;100676.09;;;3.12;91.34
52032;BME280;38044;45.148;39.604;2023-11-21T05:35:35;100652.78;;;3.03;91.36
52032;BME280;38044;45.148;39.604;2023-11-21T05:38:01;100655.53;;;3.08;91.28
52032;BME280;38044;45.148;39.604;2023-11-21T05:40:27;100673.28;;;3.19;91.08
52032;BME280;38044;45.148;39.604;2023-11-21T05:42:55;100686.97;;;3.28;91.32
52032;BME280;38044;45.148;39.604;2023-11-21T05:45:21;100688.81;;;3.27;91.39
52032;BME280;38044;45.148;39.604;2023-11-21T05:47:47;100675.22;;;3.24;91.51
52032;BME280;38044;45.148;39.604;2023-11-21T05:50:14;100693.59;;;3.42;91.20
52032;BME280;38044;45.148;39.604;2023-11-21T05:52:45;100690.63;;;3.38;90.23
52032;BME280;38044;45.148;39.604;2023-11-21T05:55:11;100687.06;;;3.33;89.61
52032;BME280;38044;45.148;39.604;2023-11-21T05:57:39;100699.06;;;3.35;89.75
52032;BME280;38044;45.148;39.604;2023-11-21T06:00:14;100696.50;;;3.41;90.01
52032;BME280;38044;45.148;39.604;2023-11-21T06:02:54;100706.56;;;3.38;89.94
52032;BME280;38044;45.148;39.604;2023-11-21T06:05:22;100709.13;;;3.33;90.27
52032;BME280;38044;45.148;39.604;2023-11-21T06:07:52;100728.53;;;3.34;90.23
52032;BME280;38044;45.148;39.604;2023-11-21T06:10:20;100729.44;;;3.39;90.17
52032;BME280;38044;45.148;39.604;2023-11-21T06:12:46;100727.88;;;3.27;89.10
52032;BME280;38044;45.148;39.604;2023-11-21T06:15:12;100727.41;;;3.30;88.83
52032;BME280;38044;45.148;39.604;2023-11-21T06:17:42;100735.28;;;3.25;88.61
52032;BME280;38044;45.148;39.604;2023-11-21T06:20:09;100736.06;;;3.25;88.20
52032;BME280;38044;45.148;39.604;2023-11-21T06:22:37;100754.69;;;3.25;88.33
52032;BME280;38044;45.148;39.604;2023-11-21T06:25:04;100746.97;;;3.24;88.45
52032;BME280;38044;45.148;39.604;2023-11-21T06:27:41;100754.09;;;3.23;88.24
52032;BME280;38044;45.148;39.604;2023-11-21T06:30:07;100754.81;;;3.19;88.38
52032;BME280;38044;45.148;39.604;2023-11-21T06:32:38;100764.13;;;3.33;88.84
52032;BME280;38044;45.148;39.604;2023-11-21T06:35:08;100755.56;;;3.31;88.67
52032;BME280;38044;45.148;39.604;2023-11-21T06:37:35;100765.88;;;3.27;88.27
52032;BME280;38044;45.148;39.604;2023-11-21T06:40:01;100748.13;;;3.16;88.51
52032;BME280;38044;45.148;39.604;2023-11-21T06:42:29;100754.41;;;3.10;88.38
52032;BME280;38044;45.148;39.604;2023-11-21T06:44:55;100747.91;;;3.06;88.45
52032;BME280;38044;45.148;39.604;2023-11-21T06:47:25;100770.88;;;3.24;88.69
52032;BME280;38044;45.148;39.604;2023-11-21T06:49:52;100777.69;;;3.20;88.75
52032;BME280;38044;45.148;39.604;2023-11-21T06:52:18;100773.09;;;3.15;89.02
52032;BME280;38044;45.148;39.604;2023-11-21T06:54:44;100769.59;;;3.14;88.96
52032;BME280;38044;45.148;39.604;2023-11-21T06:57:11;100773.75;;;3.22;89.19
52032;BME280;38044;45.148;39.604;2023-11-21T06:59:37;100779.53;;;3.19;89.49
52032;BME280;38044;45.148;39.604;2023-11-21T07:02:03;100766.63;;;3.11;89.36
52032;BME280;38044;45.148;39.604;2023-11-21T07:04:32;100784.47;;;3.27;89.33
52032;BME280;38044;45.148;39.604;2023-11-21T07:06:58;100786.19;;;3.33;89.01
52032;BME280;38044;45.148;39.604;2023-11-21T07:09:24;100795.69;;;3.29;88.56
52032;BME280;38044;45.148;39.604;2023-11-21T07:11:54;100804.78;;;3.33;87.82
52032;BME280;38044;45.148;39.604;2023-11-21T07:14:21;100806.78;;;3.26;87.76
52032;BME280;38044;45.148;39.604;2023-11-21T07:16:47;100782.78;;;3.21;87.93
52032;BME280;38044;45.148;39.604;2023-11-21T07:19:13;100805.06;;;3.49;88.11
52032;BME280;38044;45.148;39.604;2023-11-21T07:21:40;100782.47;;;3.34;88.24
52032;BME280;38044;45.148;39.604;2023-11-21T07:24:07;100808.56;;;3.49;87.67
52032;BME280;38044;45.148;39.604;2023-11-21T07:26:34;100803.09;;;3.56;88.00
52032;BME280;38044;45.148;39.604;2023-11-21T07:29:01;100810.00;;;3.57;88.29
52032;BME280;38044;45.148;39.604;2023-11-21T07:31:26;100802.41;;;3.49;87.44
52032;BME280;38044;45.148;39.604;2023-11-21T07:33:53;100803.34;;;3.43;86.16
52032;BME280;38044;45.148;39.604;2023-11-21T07:36:21;100806.59;;;3.45;86.53
52032;BME280;38044;45.148;39.604;2023-11-21T07:38:47;100817.59;;;3.36;86.51
52032;BME280;38044;45.148;39.604;2023-11-21T07:41:13;100813.56;;;3.34;86.85
52032;BME280;38044;45.148;39.604;2023-11-21T07:43:44;100813.88;;;3.37;87.30
52032;BME280;38044;45.148;39.604;2023-11-21T07:46:11;100813.88;;;3.37;87.32
52032;BME280;38044;45.148;39.604;2023-11-21T07:48:41;100794.53;;;3.25;87.00
52032;BME280;38044;45.148;39.604;2023-11-21T07:51:08;100801.91;;;3.23;87.19
52032;BME280;38044;45.148;39.604;2023-11-21T07:53:34;100826.63;;;3.35;87.00
52032;BME280;38044;45.148;39.604;2023-11-21T07:58:30;100829.38;;;3.41;86.46
52032;BME280;38044;45.148;39.604;2023-11-21T08:00:59;100821.97;;;3.43;86.33
52032;BME280;38044;45.148;39.604;2023-11-21T08:03:25;100808.13;;;3.41;86.37
52032;BME280;38044;45.148;39.604;2023-11-21T08:05:58;100825.94;;;3.57;86.57
52032;BME280;38044;45.148;39.604;2023-11-21T08:08:25;100829.84;;;3.66;86.76
52032;BME280;38044;45.148;39.604;2023-11-21T08:10:52;100826.25;;;3.72;86.48
52032;BME280;38044;45.148;39.604;2023-11-21T08:13:24;100816.75;;;3.76;86.27
52032;BME280;38044;45.148;39.604;2023-11-21T08:15:50;100814.56;;;3.73;86.02
52032;BME280;38044;45.148;39.604;2023-11-21T08:18:19;100818.03;;;3.74;85.65
52032;BME280;38044;45.148;39.604;2023-11-21T08:20:45;100825.78;;;3.75;85.65
52032;BME280;38044;45.148;39.604;2023-11-21T08:23:15;100805.47;;;3.69;85.65
52032;BME280;38044;45.148;39.604;2023-11-21T08:25:45;100825.13;;;3.85;85.39
52032;BME280;38044;45.148;39.604;2023-11-21T08:28:12;100828.59;;;3.86;85.49
52032;BME280;38044;45.148;39.604;2023-11-21T08:30:42;100826.13;;;3.96;85.45
52032;BME280;38044;45.148;39.604;2023-11-21T08:33:09;100830.47;;;4.02;85.23
52032;BME280;38044;45.148;39.604;2023-11-21T08:35:35;100822.28;;;4.03;84.86
52032;BME280;38044;45.148;39.604;2023-11-21T08:38:02;100800.00;;;3.93;84.87
52032;BME280;38044;45.148;39.604;2023-11-21T08:40:28;100821.31;;;4.10;84.67
52032;BME280;38044;45.148;39.604;2023-11-21T08:42:54;100832.25;;;4.13;84.62
52032;BME280;38044;45.148;39.604;2023-11-21T08:45:21;100808.72;;;4.05;83.57
52032;BME280;38044;45.148;39.604;2023-11-21T08:47:47;100838.88;;;4.27;83.93
52032;BME280;38044;45.148;39.604;2023-11-21T08:50:13;100834.94;;;4.30;83.52
52032;BME280;38044;45.148;39.604;2023-11-21T08:52:41;100822.25;;;4.20;83.13
52032;BME280;38044;45.148;39.604;2023-11-21T08:55:08;100834.13;;;4.29;82.78
52032;BME280;38044;45.148;39.604;2023-11-21T08:57:37;100837.41;;;4.37;82.92
52032;BME280;38044;45.148;39.604;2023-11-21T09:00:03;100846.16;;;4.32;82.03
52032;BME280;38044;45.148;39.604;2023-11-21T09:02:33;100846.56;;;4.41;81.86
52032;BME280;38044;45.148;39.604;2023-11-21T09:05:04;100850.72;;;4.37;81.06
52032;BME280;38044;45.148;39.604;2023-11-21T09:07:29;100844.28;;;4.33;81.17
52032;BME280;38044;45.148;39.604;2023-11-21T09:09:56;100854.06;;;4.27;80.98
52032;BME280;38044;45.148;39.604;2023-11-21T09:12:22;100858.72;;;4.20;80.05
52032;BME280;38044;45.148;39.604;2023-11-21T09:14:47;100862.25;;;4.25;80.98
52032;BME280;38044;45.148;39.604;2023-11-21T09:17:15;100866.28;;;4.28;80.87
52032;BME280;38044;45.148;39.604;2023-11-21T09:19:41;100866.63;;;4.32;79.81
52032;BME280;38044;45.148;39.604;2023-11-21T09:22:07;100865.97;;;4.24;79.57
52032;BME280;38044;45.148;39.604;2023-11-21T09:24:33;100865.97;;;4.24;79.40
52032;BME280;38044;45.148;39.604;2023-11-21T09:27:00;100848.22;;;4.13;78.38
52032;BME280;38044;45.148;39.604;2023-11-21T09:29:28;100863.31;;;4.24;79.09
52032;BME280;38044;45.148;39.604;2023-11-21T09:31:57;100858.88;;;4.13;78.35
52032;BME280;38044;45.148;39.604;2023-11-21T09:34:27;100860.56;;;4.19;78.22
52032;BME280;38044;45.148;39.604;2023-11-21T09:36:53;100867.25;;;4.05;77.78
52032;BME280;38044;45.148;39.604;2023-11-21T09:39:19;100871.59;;;4.11;78.72
52032;BME280;38044;45.148;39.604;2023-11-21T09:41:59;100875.81;;;4.24;78.54
52032;BME280;38044;45.148;39.604;2023-11-21T09:44:41;100885.63;;;4.23;78.54
52032;BME280;38044;45.148;39.604;2023-11-21T09:47:10;100886.44;;;4.07;78.30
52032;BME280;38044;45.148;39.604;2023-11-21T09:49:39;100888.19;;;4.01;78.84
52032;BME280;38044;45.148;39.604;2023-11-21T09:52:08;100878.59;;;4.00;78.84
52032;BME280;38044;45.148;39.604;2023-11-21T09:54:35;100884.25;;;4.04;79.18
52032;BME280;38044;45.148;39.604;2023-11-21T09:57:02;100886.34;;;4.02;78.92
52032;BME280;38044;45.148;39.604;2023-11-21T09:59:30;100889.66;;;4.09;79.31
52032;BME280;38044;45.148;39.604;2023-11-21T10:01:59;100893.03;;;4.04;79.38
52032;BME280;38044;45.148;39.604;2023-11-21T10:04:25;100883.09;;;4.00;79.00
52032;BME280;38044;45.148;39.604;2023-11-21T10:06:53;100897.00;;;4.19;79.66
52032;BME280;38044;45.148;39.604;2023-11-21T10:09:19;100879.00;;;4.09;79.74
52032;BME280;38044;45.148;39.604;2023-11-21T10:11:47;100898.63;;;4.37;79.11
52032;BME280;38044;45.148;39.604;2023-11-21T10:14:16;100877.25;;;4.32;78.55
52032;BME280;38044;45.148;39.604;2023-11-21T10:16:45;100898.72;;;4.42;78.48
52032;BME280;38044;45.148;39.604;2023-11-21T10:19:12;100893.88;;;4.39;78.76
52032;BME280;38044;45.148;39.604;2023-11-21T10:21:42;100901.31;;;4.37;78.98
52032;BME280;38044;45.148;39.604;2023-11-21T10:24:08;100902.59;;;4.34;78.56
52032;BME280;38044;45.148;39.604;2023-11-21T10:26:34;100906.16;;;4.40;78.63
52032;BME280;38044;45.148;39.604;2023-11-21T10:29:02;100904.53;;;4.39;78.45
52032;BME280;38044;45.148;39.604;2023-11-21T10:31:32;100903.72;;;4.21;78.47
52032;BME280;38044;45.148;39.604;2023-11-21T10:34:19;100911.66;;;4.50;79.08
52032;BME280;38044;45.148;39.604;2023-11-21T10:36:45;100909.19;;;4.32;78.76
52032;BME280;38044;45.148;39.604;2023-11-21T10:39:16;100882.59;;;4.32;79.05
52032;BME280;38044;45.148;39.604;2023-11-21T10:41:46;100886.78;;;4.27;78.83
52032;BME280;38044;45.148;39.604;2023-11-21T10:44:17;100901.63;;;4.57;79.23
52032;BME280;38044;45.148;39.604;2023-11-21T10:46:50;100888.97;;;4.64;78.95
52032;BME280;38044;45.148;39.604;2023-11-21T10:49:23;100902.34;;;4.86;79.04
52032;BME280;38044;45.148;39.604;2023-11-21T10:51:56;100916.63;;;4.97;79.16
52032;BME280;38044;45.148;39.604;2023-11-21T10:54:25;100910.16;;;5.10;79.14
52032;BME280;38044;45.148;39.604;2023-11-21T10:56:58;100912.69;;;5.22;78.36
52032;BME280;38044;45.148;39.604;2023-11-21T10:59:34;100923.97;;;5.29;78.12
52032;BME280;38044;45.148;39.604;2023-11-21T11:02:01;100925.97;;;5.16;77.88
52032;BME280;38044;45.148;39.604;2023-11-21T11:04:34;100930.94;;;5.30;78.19
52032;BME280;38044;45.148;39.604;2023-11-21T11:07:05;100910.75;;;5.17;77.17
52032;BME280;38044;45.148;39.604;2023-11-21T11:09:35;100935.81;;;5.16;77.28
52032;BME280;38044;45.148;39.604;2023-11-21T11:12:04;100937.72;;;5.20;78.28
52032;BME280;38044;45.148;39.604;2023-11-21T11:14:30;100941.78;;;5.06;77.89
52032;BME280;38044;45.148;39.604;2023-11-21T11:16:58;100919.38;;;4.85;77.28
52032;BME280;38044;45.148;39.604;2023-11-21T11:19:25;100947.47;;;4.93;77.69
52032;BME280;38044;45.148;39.604;2023-11-21T11:28:14;100961.50;;;4.88;78.99
52032;BME280;38044;45.148;39.604;2023-11-21T11:30:55;100950.63;;;4.73;79.48
52032;BME280;38044;45.148;39.604;2023-11-21T11:33:45;100969.00;;;4.74;79.38
52032;BME280;38044;45.148;39.604;2023-11-21T11:36:35;100966.44;;;4.80;79.48
52032;BME280;38044;45.148;39.604;2023-11-21T11:39:02;100966.50;;;4.51;79.79
52032;BME280;38044;45.148;39.604;2023-11-21T11:41:31;100980.38;;;4.53;80.03
52032;BME280;38044;45.148;39.604;2023-11-21T11:44:00;100978.31;;;4.55;79.99
52032;BME280;38044;45.148;39.604;2023-11-21T11:46:44;100981.22;;;4.70;80.73
52032;BME280;38044;45.148;39.604;2023-11-21T11:49:54;100987.44;;;4.76;80.38
52032;BME280;38044;45.148;39.604;2023-11-21T11:55:07;100973.38;;;4.47;80.13
52032;BME280;38044;45.148;39.604;2023-11-21T11:57:36;100989.34;;;4.47;80.52
52032;BME280;38044;45.148;39.604;2023-11-21T12:03:08;100989.88;;;4.49;81.90
52032;BME280;38044;45.148;39.604;2023-11-21T12:05:35;100980.19;;;4.43;81.69
52032;BME280;38044;45.148;39.604;2023-11-21T12:08:06;100991.19;;;4.46;81.75
52032;BME280;38044;45.148;39.604;2023-11-21T12:10:37;100980.78;;;4.45;82.50
52032;BME280;38044;45.148;39.604;2023-11-21T12:13:08;100996.84;;;4.50;82.35
52032;BME280;38044;45.148;39.604;2023-11-21T12:15:36;101004.25;;;4.48;82.52
52032;BME280;38044;45.148;39.604;2023-11-21T12:18:03;100998.72;;;4.38;82.41
52032;BME280;38044;45.148;39.604;2023-11-21T12:20:32;101011.34;;;4.42;83.13
52032;BME280;38044;45.148;39.604;2023-11-21T12:22:59;101009.47;;;4.43;83.05
52032;BME280;38044;45.148;39.604;2023-11-21T12:25:27;101011.00;;;4.39;82.79
52032;BME280;38044;45.148;39.604;2023-11-21T12:28:00;101015.19;;;4.35;83.05
52032;BME280;38044;45.148;39.604;2023-11-21T12:30:33;101020.03;;;4.38;83.12
52032;BME280;38044;45.148;39.604;2023-11-21T12:33:02;101010.81;;;4.28;83.50
52032;BME280;38044;45.148;39.604;2023-11-21T12:35:31;101015.75;;;4.37;83.76
52032;BME280;38044;45.148;39.604;2023-11-21T12:38:01;101011.50;;;4.36;83.99
52032;BME280;38044;45.148;39.604;2023-11-21T12:40:28;101026.97;;;4.39;83.60
52032;BME280;38044;45.148;39.604;2023-11-21T12:42:56;101022.47;;;4.39;83.70
52032;BME280;38044;45.148;39.604;2023-11-21T12:45:27;101028.00;;;4.38;84.04
52032;BME280;38044;45.148;39.604;2023-11-21T12:48:04;101005.69;;;4.39;84.14
52032;BME280;38044;45.148;39.604;2023-11-21T12:50:35;101022.13;;;4.36;83.52
52032;BME280;38044;45.148;39.604;2023-11-21T12:53:12;101046.47;;;4.56;83.32
52032;BME280;38044;45.148;39.604;2023-11-21T12:55:39;101041.69;;;4.41;83.13
52032;BME280;38044;45.148;39.604;2023-11-21T12:58:07;101033.75;;;4.29;82.85
52032;BME280;38044;45.148;39.604;2023-11-21T13:00:43;101042.16;;;4.38;83.21
52032;BME280;38044;45.148;39.604;2023-11-21T13:03:11;101044.72;;;4.33;83.18
52032;BME280;38044;45.148;39.604;2023-11-21T13:05:41;101043.09;;;4.32;83.16
52032;BME280;38044;45.148;39.604;2023-11-21T13:08:16;101051.97;;;4.38;83.26
52032;BME280;38044;45.148;39.604;2023-11-21T13:10:50;101060.63;;;4.45;83.24